New Marion, Indiana
Current Conditions -  °F | °C
As of 2:51 PM on Wednesday 26 Nov 2014 (Local Time) from KBAK Reporting Station
Scattered Clouds Scattered Clouds  
Wind Chill: 32°   Ceiling: Unl
Heat Index: 36°   Visibility: 10mi
Dew Point: 27°   Wind: 5mph
Humidity: 70%   Direction: 60°ENE
Pressure: 30.06"   Gusts: NA
Location:  39.0217°N, 85.3869°W
Report Text: KBAK 261951Z 06004KT 10SM SCT028 02/M03 A3006
Loading
Personal Weather Stations






























Interactive Weather Map New forecast layout! Learn more

10-Day Weather Forecast

Advertisements
Track Severe Weather on mobile